Time;durP1;ratioP1;P1;durP2;ratioP2;P2;SDS_P1;SDS_P2;PMS_P1;PMS_P2;Temp;Humidity;BMP_temperature;BMP_pressure;BME280_temperature;BME280_humidity;BME280_pressure;Samples;Min_cycle;Max_cycle;Signal;HPM_P1;HPM_P2
2023/10/11 00:01:31;;;;;;;7.60;4.67;;;26.70;99.90;;;;;;5093824;28;20251;-69
2023/10/11 00:04:03;;;;;;;10.70;4.47;;;26.40;99.90;;;;;;5093844;28;20645;-70
2023/10/11 00:06:33;;;;;;;8.40;4.70;;;26.50;99.90;;;;;;5093648;28;20219;-70
2023/10/11 00:09:00;;;;;;;11.53;4.77;;;26.70;99.90;;;;;;5093753;28;20574;-70
2023/10/11 00:11:31;;;;;;;9.83;5.70;;;27.10;99.90;;;;;;5095084;28;20187;-70
2023/10/11 00:13:59;;;;;;;11.43;5.27;;;27.00;99.90;;;;;;5093381;28;20186;-69
2023/10/11 00:16:35;;;;;;;10.47;4.67;;;27.20;99.90;;;;;;5092514;28;20191;-68
2023/10/11 00:19:09;;;;;;;10.33;5.20;;;27.50;99.90;;;;;;5093813;28;20182;-71
2023/10/11 00:21:42;;;;;;;8.87;5.00;;;27.50;99.90;;;;;;5076860;28;20582;-69
2023/10/11 00:24:09;;;;;;;7.23;5.20;;;27.60;99.90;;;;;;5094010;28;20175;-69
2023/10/11 00:26:40;;;;;;;8.50;4.80;;;27.90;99.90;;;;;;5093622;28;20215;-69
2023/10/11 00:29:09;;;;;;;11.73;5.70;;;27.10;99.90;;;;;;5092973;28;20175;-69
2023/10/11 00:31:38;;;;;;;10.30;5.83;;;27.40;99.90;;;;;;5092734;28;20705;-69
2023/10/11 00:34:10;;;;;;;5.53;4.93;;;27.00;99.90;;;;;;5093760;28;20179;-68
2023/10/11 00:36:38;;;;;;;9.00;5.20;;;27.70;99.90;;;;;;5093600;28;20179;-68
2023/10/11 00:39:07;;;;;;;10.20;4.70;;;28.30;99.90;;;;;;5092195;28;20516;-69
2023/10/11 00:41:39;;;;;;;10.80;5.33;;;28.80;99.90;;;;;;5093335;28;20262;-68
2023/10/11 00:44:07;;;;;;;10.00;4.70;;;28.90;99.90;;;;;;5093289;28;20266;-69
2023/10/11 00:46:44;;;;;;;11.87;5.10;;;28.30;99.90;;;;;;5093061;28;20207;-68
2023/10/11 00:49:14;;;;;;;7.80;5.03;;;28.20;99.90;;;;;;5093497;28;20171;-68
2023/10/11 00:51:45;;;;;;;8.10;4.67;;;28.10;99.90;;;;;;5093344;28;20187;-68
2023/10/11 00:54:15;;;;;;;12.07;5.00;;;27.70;99.90;;;;;;5093429;28;20208;-70
2023/10/11 00:56:52;;;;;;;8.90;4.73;;;28.50;99.90;;;;;;5093235;28;20172;-67
2023/10/11 00:59:21;;;;;;;9.27;4.47;;;28.60;99.90;;;;;;5093397;28;20171;-70
2023/10/11 01:01:50;;;;;;;6.07;4.27;;;28.40;99.90;;;;;;5093727;28;20197;-69
2023/10/11 01:04:19;;;;;;;6.20;4.30;;;28.60;99.90;;;;;;5092002;28;20179;-67
2023/10/11 01:06:49;;;;;;;5.13;4.07;;;28.80;99.90;;;;;;5092872;28;20215;-70
2023/10/11 01:09:17;;;;;;;5.87;3.80;;;28.90;99.90;;;;;;5093214;28;20262;-70
2023/10/11 01:11:48;;;;;;;6.87;4.60;;;28.70;99.90;;;;;;5093040;28;20674;-68
2023/10/11 01:14:15;;;;;;;7.40;4.37;;;28.50;99.90;;;;;;5093252;28;20186;-68
2023/10/11 01:16:43;;;;;;;7.83;4.33;;;28.90;99.80;;;;;;5093031;28;20167;-69
2023/10/11 01:19:11;;;;;;;6.23;4.33;;;29.00;99.80;;;;;;5092905;28;20184;-70
2023/10/11 01:21:41;;;;;;;12.80;4.40;;;28.70;99.90;;;;;;5093266;28;20180;-70
2023/10/11 01:24:09;;;;;;;6.43;3.93;;;28.50;99.90;;;;;;5091835;28;20179;-70
2023/10/11 01:26:37;;;;;;;6.07;4.00;;;28.20;99.90;;;;;;5094253;28;20223;-70
2023/10/11 01:29:09;;;;;;;9.87;4.33;;;28.70;97.10;;;;;;5093691;28;20187;-71
2023/10/11 01:31:40;;;;;;;6.53;3.87;;;29.40;95.40;;;;;;5093338;28;20175;-69
2023/10/11 01:34:13;;;;;;;7.07;3.83;;;29.30;94.50;;;;;;5093414;28;20182;-69
2023/10/11 01:36:42;;;;;;;4.47;3.30;;;29.40;92.30;;;;;;5093434;28;20179;-70
2023/10/11 01:39:11;;;;;;;5.47;3.47;;;29.10;91.70;;;;;;5091759;28;20179;-70
2023/10/11 01:41:42;;;;;;;5.97;3.63;;;29.40;92.00;;;;;;5093193;28;20183;-70
2023/10/11 01:44:09;;;;;;;6.77;4.30;;;29.00;92.80;;;;;;5093387;28;20203;-70
2023/10/11 01:46:40;;;;;;;5.03;3.47;;;29.50;93.60;;;;;;5096636;28;20297;-69
2023/10/11 01:49:10;;;;;;;3.63;2.87;;;29.10;88.00;;;;;;5096416;28;20580;-70
2023/10/11 01:51:46;;;;;;;6.27;2.60;;;29.60;71.50;;;;;;5096611;28;20199;-70
2023/10/11 01:54:22;;;;;;;7.10;3.30;;;30.00;61.90;;;;;;5097342;28;20163;-71
2023/10/11 01:56:56;;;;;;;6.00;3.37;;;30.00;68.60;;;;;;5097260;28;20281;-69
2023/10/11 01:59:24;;;;;;;4.17;3.40;;;30.00;66.90;;;;;;5095187;28;20670;-70
2023/10/11 02:01:58;;;;;;;7.63;3.50;;;30.10;61.60;;;;;;5096171;28;20187;-70
2023/10/11 02:04:28;;;;;;;6.60;3.47;;;30.10;62.50;;;;;;5094988;28;20182;-69
2023/10/11 02:06:59;;;;;;;5.17;3.23;;;30.00;67.50;;;;;;5096111;28;20222;-69
2023/10/11 02:09:28;;;;;;;6.03;3.30;;;30.10;60.30;;;;;;5096456;28;20194;-70
2023/10/11 02:11:55;;;;;;;4.43;3.40;;;30.20;57.20;;;;;;5094795;28;20237;-70
2023/10/11 02:14:24;;;;;;;7.57;3.47;;;29.80;57.20;;;;;;5095888;28;20578;-69
2023/10/11 02:16:55;;;;;;;6.60;3.27;;;29.60;58.60;;;;;;5095891;28;20550;-69
2023/10/11 02:19:24;;;;;;;5.67;3.43;;;29.70;57.60;;;;;;5094610;28;20240;-69
2023/10/11 02:21:53;;;;;;;5.77;2.90;;;29.50;60.40;;;;;;5095842;28;20234;-70
2023/10/11 02:24:25;;;;;;;5.27;3.00;;;30.20;68.10;;;;;;5095658;28;20218;-70
2023/10/11 02:30:24;;;;;;;6.57;3.25;;;30.80;60.00;;;;;;5095414;28;20512;-69
2023/10/11 02:33:04;;;;;;;8.85;3.50;;;30.20;53.10;;;;;;5096519;28;20187;-69
2023/10/11 02:35:34;;;;;;;4.77;2.90;;;30.50;54.70;;;;;;5095911;28;20403;-68
2023/10/11 02:38:09;;;;;;;5.63;3.23;;;30.10;50.00;;;;;;5095551;28;20695;-67
2023/10/11 02:40:38;;;;;;;4.70;3.13;;;30.10;52.30;;;;;;5095315;28;20183;-68
2023/10/11 02:43:06;;;;;;;5.47;3.20;;;30.40;50.00;;;;;;5095273;28;20202;-70
2023/10/11 02:45:34;;;;;;;7.67;2.97;;;31.00;51.00;;;;;;5095417;28;20218;-70
2023/10/11 02:48:09;;;;;;;5.90;3.30;;;30.90;48.20;;;;;;5095514;28;20191;-69
2023/10/11 02:50:37;;;;;;;6.50;3.60;;;30.40;47.30;;;;;;5095005;28;20179;-68
2023/10/11 02:53:20;;;;;;;6.40;3.70;;;30.00;48.90;;;;;;5095211;28;20274;-68
2023/10/11 02:55:57;;;;;;;6.17;3.70;;;29.50;46.90;;;;;;5094994;28;20561;-68
2023/10/11 02:58:31;;;;;;;10.00;3.80;;;29.90;45.10;;;;;;5095288;28;20178;-68
2023/10/11 03:01:02;;;;;;;4.80;2.93;;;30.20;45.90;;;;;;5095008;28;20190;-68
2023/10/11 03:03:38;;;;;;;3.60;3.20;;;30.70;47.20;;;;;;5094916;28;20179;-69
2023/10/11 03:06:08;;;;;;;4.00;2.87;;;30.80;42.80;;;;;;5094776;28;20276;-68
2023/10/11 03:08:40;;;;;;;5.63;3.10;;;31.10;46.30;;;;;;5095049;28;20167;-67
2023/10/11 03:11:09;;;;;;;5.18;3.20;;;31.50;53.30;;;;;;5093547;28;20612;-69
2023/10/11 03:13:43;;;;;;;4.67;2.90;;;31.50;44.20;;;;;;5093303;28;20537;-69
2023/10/11 03:16:17;;;;;;;7.90;3.10;;;31.60;41.70;;;;;;5094585;28;20206;-71
2023/10/11 03:18:50;;;;;;;6.47;3.30;;;31.90;39.20;;;;;;5094681;28;20178;-70
2023/10/11 03:24:40;;;;;;;7.72;3.25;;;31.10;37.00;;;;;;5093561;28;20253;-71
2023/10/11 03:27:10;;;;;;;4.90;3.03;;;30.80;36.30;;;;;;5093044;28;20684;-69
2023/10/11 03:29:40;;;;;;;11.40;3.20;;;30.50;38.90;;;;;;5094332;28;20170;-69
2023/10/11 03:32:09;;;;;;;7.50;3.70;;;30.70;38.50;;;;;;5093199;28;20179;-70
2023/10/11 03:34:37;;;;;;;7.27;3.50;;;30.40;41.70;;;;;;5094223;28;20666;-71
2023/10/11 03:37:10;;;;;;;6.77;3.30;;;30.50;40.50;;;;;;5092914;28;20575;-68
2023/10/11 03:42:14;;;;;;;9.37;4.03;;;31.00;37.60;;;;;;5094002;28;20203;-68
2023/10/11 03:44:46;;;;;;;4.53;3.30;;;30.10;37.00;;;;;;5093959;28;20183;-70
2023/10/11 03:47:18;;;;;;;6.77;3.77;;;29.90;38.50;;;;;;5093913;28;20207;-68
2023/10/11 03:49:51;;;;;;;8.37;3.63;;;29.80;37.70;;;;;;5094031;28;20278;-69
2023/10/11 03:52:24;;;;;;;5.53;3.43;;;29.50;39.50;;;;;;5094002;28;20172;-70
2023/10/11 03:55:05;;;;;;;6.33;3.20;;;30.10;38.10;;;;;;5094061;28;20179;-69
2023/10/11 03:57:36;;;;;;;5.23;2.87;;;30.50;36.10;;;;;;5093845;28;20706;-70
2023/10/11 04:00:46;;;;;;;9.00;3.40;;;30.80;38.70;;;;;;5093793;28;20183;-70
2023/10/11 04:03:02;;;;;;;4.30;2.97;;;30.70;33.20;;;;;;5091544;28;20195;-69
2023/10/11 04:05:34;;;;;;;4.50;3.43;;;30.80;36.40;;;;;;5093874;28;20206;-70
2023/10/11 04:08:05;;;;;;;5.00;3.50;;;30.60;35.70;;;;;;5093000;28;20707;-67
2023/10/11 04:10:39;;;;;;;6.17;3.53;;;30.60;36.90;;;;;;5093773;28;20523;-68
2023/10/11 04:13:14;;;;;;;7.63;3.67;;;30.70;35.60;;;;;;5093575;28;20686;-68
2023/10/11 04:15:42;;;;;;;5.80;3.97;;;30.70;31.40;;;;;;5093799;28;20190;-70
2023/10/11 04:23:39;;;;;;;5.13;2.97;;;30.20;34.20;;;;;;5093361;28;20190;-68
2023/10/11 04:26:26;;;;;;;5.67;3.03;;;30.60;38.50;;;;;;5093342;28;20249;-68
2023/10/11 04:29:06;;;;;;;6.00;3.40;;;30.90;32.40;;;;;;5093255;28;20554;-68
2023/10/11 04:32:40;;;;;;;4.50;3.30;;;30.60;33.90;;;;;;5093474;28;20206;-68
2023/10/11 04:34:32;;;;;;;6.03;3.67;;;30.80;32.20;;;;;;5087522;28;20190;-69
2023/10/11 04:37:06;;;;;;;5.53;3.60;;;30.50;32.60;;;;;;5093454;28;20167;-69
2023/10/11 04:39:34;;;;;;;6.97;3.73;;;30.70;30.40;;;;;;5093563;28;20204;-68
2023/10/11 04:42:02;;;;;;;4.90;3.60;;;30.60;31.40;;;;;;5093316;28;20172;-69
2023/10/11 04:44:54;;;;;;;6.45;3.80;;;30.60;31.50;;;;;;5092945;28;20183;-68
2023/10/11 04:47:23;;;;;;;4.13;3.20;;;30.20;31.50;;;;;;5093263;28;20218;-69
2023/10/11 04:49:54;;;;;;;7.83;3.00;;;30.20;32.30;;;;;;5093194;28;20733;-67
2023/10/11 04:52:26;;;;;;;4.57;3.70;;;30.40;31.80;;;;;;5093246;28;20536;-68
2023/10/11 04:54:54;;;;;;;10.47;3.10;;;30.40;29.50;;;;;;5091942;28;20626;-70
2023/10/11 04:57:48;;;;;;;5.27;2.70;;;30.40;41.40;;;;;;5093245;28;20175;-71
2023/10/11 05:00:18;;;;;;;7.13;1.90;;;30.30;52.80;;;;;;5093392;28;20196;-71
2023/10/11 05:02:58;;;;;;;8.57;2.57;;;29.90;65.80;;;;;;5093228;28;20187;-71
2023/10/11 05:05:25;;;;;;;7.30;2.87;;;29.80;72.20;;;;;;5092921;28;20722;-71
2023/10/11 05:08:05;;;;;;;8.73;2.50;;;29.60;82.20;;;;;;5093070;28;20184;-71
2023/10/11 05:10:43;;;;;;;4.50;2.20;;;29.50;85.80;;;;;;5093366;28;20497;-71
2023/10/11 05:13:13;;;;;;;6.47;2.37;;;28.90;93.50;;;;;;5092778;28;20171;-70
2023/10/11 05:15:47;;;;;;;9.03;2.40;;;28.80;98.30;;;;;;5093206;28;20175;-70
2023/10/11 05:18:24;;;;;;;4.57;2.17;;;28.70;99.10;;;;;;5093496;28;20221;-70
2023/10/11 05:21:14;;;;;;;7.90;2.60;;;28.40;99.90;;;;;;5096971;28;20255;-71
2023/10/11 05:26:41;;;;;;;9.47;3.20;;;28.30;99.90;;;;;;5075020;28;20288;-70
2023/10/11 05:29:24;;;;;;;5.80;2.90;;;28.20;99.90;;;;;;5096811;28;20174;-70
2023/10/11 05:32:41;;;;;;;11.73;2.77;;;28.10;99.90;;;;;;5096275;28;20179;-70
2023/10/11 05:34:53;;;;;;;7.93;3.23;;;27.90;99.90;;;;;;5088996;28;20274;-69
2023/10/11 05:51:07;;;;;;;6.03;2.37;;;27.20;99.90;;;;;;5096458;28;20647;-69
2023/10/11 05:53:35;;;;;;;9.70;3.17;;;27.10;99.90;;;;;;5096124;28;20183;-67
2023/10/11 05:56:02;;;;;;;6.07;3.50;;;27.10;99.90;;;;;;5096343;28;20179;-68
2023/10/11 05:58:34;;;;;;;7.63;3.57;;;27.20;99.90;;;;;;5096159;28;20178;-69
2023/10/11 06:01:06;;;;;;;5.03;2.40;;;27.20;99.90;;;;;;5096192;28;20180;-68
2023/10/11 06:03:35;;;;;;;8.87;2.50;;;26.90;99.90;;;;;;5096008;28;20171;-68
2023/10/11 06:06:23;;;;;;;9.80;2.67;;;26.90;99.90;;;;;;5095854;28;20218;-68
2023/10/11 06:08:57;;;;;;;10.17;2.73;;;27.10;99.90;;;;;;5096494;28;20171;-69
2023/10/11 06:11:29;;;;;;;9.10;3.17;;;27.00;99.90;;;;;;5095922;28;20533;-70
2023/10/11 06:14:05;;;;;;;5.47;2.03;;;27.10;99.90;;;;;;5095955;28;20188;-69
2023/10/11 06:16:43;;;;;;;7.43;2.10;;;27.20;99.90;;;;;;5095790;28;20182;-70
2023/10/11 06:19:16;;;;;;;7.43;2.57;;;27.10;99.90;;;;;;5095959;28;20171;-68
2023/10/11 06:21:58;;;;;;;5.37;2.33;;;26.90;99.90;;;;;;5095723;28;20273;-70
2023/10/11 06:24:38;;;;;;;8.40;2.63;;;26.90;99.90;;;;;;5095261;28;20238;-68
2023/10/11 06:29:54;;;;;;;5.10;1.90;;;26.80;99.90;;;;;;5095756;28;20271;-67
2023/10/11 06:32:24;;;;;;;4.90;1.90;;;26.80;99.90;;;;;;5095217;28;20183;-69
2023/10/11 06:34:52;;;;;;;8.23;2.00;;;26.90;99.90;;;;;;5095572;28;20187;-69
2023/10/11 06:37:24;;;;;;;7.67;2.23;;;26.80;99.90;;;;;;5095502;28;20186;-71
2023/10/11 06:42:23;;;;;;;9.03;2.13;;;26.60;99.90;;;;;;5095656;28;20180;-68
2023/10/11 06:44:59;;;;;;;12.83;2.53;;;26.40;99.90;;;;;;5095295;28;20183;-68
2023/10/11 06:47:37;;;;;;;5.60;2.23;;;26.40;99.90;;;;;;5095398;28;20317;-70
2023/10/11 06:50:12;;;;;;;9.43;2.30;;;26.10;99.90;;;;;;5095481;28;20258;-69
2023/10/11 06:52:44;;;;;;;8.20;2.30;;;26.00;99.90;;;;;;5095188;28;20226;-69
2023/10/11 06:55:22;;;;;;;5.03;2.00;;;25.90;99.90;;;;;;5095529;28;20179;-69
2023/10/11 06:57:57;;;;;;;7.60;2.90;;;25.80;99.90;;;;;;5095182;28;20707;-68
2023/10/11 07:00:28;;;;;;;6.10;2.77;;;25.60;99.90;;;;;;5095225;28;20217;-68
2023/10/11 07:03:26;;;;;;;11.10;3.13;;;25.40;99.90;;;;;;5094832;28;20251;-67
2023/10/11 07:06:10;;;;;;;9.00;2.80;;;25.10;99.90;;;;;;5094893;28;20214;-67
2023/10/11 07:08:48;;;;;;;15.90;3.10;;;25.00;99.90;;;;;;5095011;28;20695;-68
2023/10/11 07:11:41;;;;;;;7.67;2.93;;;24.90;99.90;;;;;;5094729;28;20588;-69
2023/10/11 07:14:14;;;;;;;9.00;3.20;;;24.80;99.90;;;;;;5095068;28;20273;-70
2023/10/11 07:16:44;;;;;;;6.67;2.93;;;24.60;99.90;;;;;;5094895;28;20683;-70
2023/10/11 07:19:11;;;;;;;7.43;2.90;;;24.50;99.90;;;;;;5093434;28;20190;-68
2023/10/11 07:26:56;;;;;;;11.37;3.33;;;24.20;99.90;;;;;;5093409;28;20237;-72
2023/10/11 07:29:23;;;;;;;8.87;3.37;;;24.10;99.90;;;;;;5094049;28;20758;-72
2023/10/11 07:31:51;;;;;;;9.17;3.07;;;24.20;99.90;;;;;;5069911;28;20186;-72
2023/10/11 07:34:21;;;;;;;11.97;3.03;;;24.00;99.90;;;;;;5092897;28;20397;-71
2023/10/11 07:36:49;;;;;;;6.20;2.73;;;23.80;99.90;;;;;;5092098;28;20202;-72
2023/10/11 07:41:49;;;;;;;5.60;2.33;;;23.50;99.90;;;;;;5091765;28;20217;-72
2023/10/11 07:44:20;;;;;;;9.40;2.30;;;23.20;99.90;;;;;;5091710;28;20614;-72
2023/10/11 07:46:48;;;;;;;7.60;2.27;;;23.10;99.90;;;;;;5089738;28;20640;-72
2023/10/11 07:49:22;;;;;;;8.43;2.37;;;22.90;99.90;;;;;;5092121;28;20187;-72
2023/10/11 07:51:58;;;;;;;5.73;2.27;;;22.80;99.90;;;;;;5092414;28;20187;-73
2023/10/11 07:54:27;;;;;;;5.77;2.13;;;22.80;99.90;;;;;;5091212;28;20182;-73
2023/10/11 07:57:00;;;;;;;4.83;2.10;;;22.70;99.90;;;;;;5092307;28;20194;-72
2023/10/11 07:59:28;;;;;;;11.70;3.00;;;22.60;99.90;;;;;;5092324;28;20179;-71
2023/10/11 08:02:07;;;;;;;5.33;1.93;;;22.60;99.90;;;;;;5091181;28;20201;-73
2023/10/11 08:04:47;;;;;;;6.50;2.30;;;22.50;99.90;;;;;;5092041;28;20194;-71
2023/10/11 08:07:17;;;;;;;6.40;2.03;;;22.50;99.90;;;;;;5091762;28;20290;-71
2023/10/11 08:09:47;;;;;;;5.83;2.70;;;22.40;99.90;;;;;;5091840;28;20240;-70
2023/10/11 08:12:15;;;;;;;7.20;2.60;;;22.30;99.90;;;;;;5092102;28;20185;-72
2023/10/11 08:14:46;;;;;;;8.13;2.23;;;22.20;99.90;;;;;;5091629;28;20194;-71
2023/10/11 08:17:19;;;;;;;7.20;2.27;;;22.20;99.90;;;;;;5092128;28;20176;-74
2023/10/11 08:19:52;;;;;;;6.13;2.33;;;22.10;99.90;;;;;;5091747;28;20620;-73
2023/10/11 08:22:20;;;;;;;5.37;1.97;;;22.10;99.90;;;;;;5091565;28;20198;-74
2023/10/11 08:24:49;;;;;;;10.70;2.83;;;22.00;99.90;;;;;;5091652;28;20233;-72
2023/10/11 08:27:28;;;;;;;10.47;2.33;;;22.00;99.90;;;;;;5092036;28;20310;-72
2023/10/11 08:32:42;;;;;;;4.47;1.77;;;21.80;99.90;;;;;;5091992;28;20179;-72
2023/10/11 08:35:26;;;;;;;7.37;2.73;;;21.70;99.90;;;;;;5091914;28;20182;-73
2023/10/11 08:37:54;;;;;;;6.27;1.90;;;21.60;99.90;;;;;;5091435;28;20175;-73
2023/10/11 08:40:29;;;;;;;7.07;1.87;;;21.60;99.90;;;;;;5091718;28;20194;-70
2023/10/11 08:43:01;;;;;;;8.53;1.97;;;21.60;99.90;;;;;;5091302;28;20272;-71
2023/10/11 08:45:33;;;;;;;8.57;2.00;;;21.60;99.90;;;;;;5091217;28;20181;-70
2023/10/11 08:48:05;;;;;;;8.83;2.13;;;21.50;99.90;;;;;;5091646;28;20205;-70
2023/10/11 08:50:34;;;;;;;8.97;2.00;;;21.50;99.90;;;;;;5091882;28;20174;-71
2023/10/11 08:53:09;;;;;;;13.90;4.43;;;21.40;99.90;;;;;;5090544;28;20213;-71
2023/10/11 08:55:42;;;;;;;16.07;9.10;;;21.40;99.90;;;;;;5095536;28;20513;-68
2023/10/11 08:58:23;;;;;;;7.87;2.47;;;21.40;99.90;;;;;;5095518;28;20184;-73
2023/10/11 09:00:58;;;;;;;6.23;2.10;;;21.30;99.90;;;;;;5095519;28;20232;-68
2023/10/11 09:03:28;;;;;;;8.23;2.03;;;21.30;99.90;;;;;;5095293;28;20227;-71
2023/10/11 09:05:58;;;;;;;7.00;2.03;;;21.30;99.90;;;;;;5095766;28;20252;-69
2023/10/11 09:08:32;;;;;;;6.57;2.00;;;21.20;99.90;;;;;;5094996;28;20220;-69
2023/10/11 09:11:28;;;;;;;7.43;2.27;;;21.10;99.90;;;;;;5095426;28;20188;-70
2023/10/11 09:14:22;;;;;;;8.63;2.20;;;21.00;99.90;;;;;;5094920;28;20229;-69
2023/10/11 09:16:57;;;;;;;10.23;2.30;;;21.00;99.90;;;;;;5095409;28;20252;-68
2023/10/11 09:19:25;;;;;;;7.83;2.00;;;21.00;99.90;;;;;;5095554;28;20545;-71
2023/10/11 09:22:03;;;;;;;6.20;1.93;;;21.00;99.90;;;;;;5094958;28;20265;-71
2023/10/11 09:24:44;;;;;;;8.47;2.50;;;20.90;99.90;;;;;;5095066;28;20243;-69
2023/10/11 09:29:49;;;;;;;9.80;2.10;;;20.70;99.90;;;;;;5094703;28;20181;-70
2023/10/11 09:32:19;;;;;;;5.43;2.43;;;20.70;99.90;;;;;;5095322;28;20171;-69
2023/10/11 09:34:50;;;;;;;6.27;1.83;;;20.60;99.90;;;;;;5094501;28;20236;-70
2023/10/11 09:37:20;;;;;;;6.77;2.23;;;20.60;99.90;;;;;;5094158;28;20186;-69
2023/10/11 09:39:51;;;;;;;6.20;1.83;;;20.70;99.90;;;;;;5095147;28;20176;-71
2023/10/11 09:42:22;;;;;;;4.57;2.03;;;20.60;99.90;;;;;;5093696;28;20553;-68
2023/10/11 09:44:57;;;;;;;6.97;2.13;;;20.60;99.90;;;;;;5094159;28;20183;-69
2023/10/11 09:47:31;;;;;;;7.00;2.43;;;20.50;99.90;;;;;;5094651;28;20220;-75
2023/10/11 09:50:01;;;;;;;8.60;1.90;;;20.40;99.90;;;;;;5094888;28;20592;-70
2023/10/11 09:52:30;;;;;;;9.17;2.37;;;20.40;99.90;;;;;;5094313;28;20214;-69
2023/10/11 09:55:07;;;;;;;10.60;2.43;;;20.60;99.90;;;;;;5093457;28;20716;-71
2023/10/11 09:57:50;;;;;;;8.97;2.27;;;20.70;99.90;;;;;;5094309;28;20215;-71
2023/10/11 10:00:34;;;;;;;10.00;2.13;;;20.50;99.90;;;;;;5092969;28;20649;-73
2023/10/11 10:03:05;;;;;;;8.87;2.10;;;20.40;99.90;;;;;;5094567;28;20807;-69
2023/10/11 10:06:05;;;;;;;8.67;2.40;;;20.30;99.90;;;;;;5093400;28;20206;-68
2023/10/11 10:08:33;;;;;;;8.57;2.20;;;20.10;99.90;;;;;;5074281;28;20179;-72
2023/10/11 10:11:02;;;;;;;6.83;2.27;;;20.00;99.90;;;;;;5074286;28;20187;-71
2023/10/11 10:13:50;;;;;;;6.77;2.23;;;20.00;99.90;;;;;;5073454;28;20192;-70
2023/10/11 10:16:17;;;;;;;6.53;2.63;;;20.00;99.90;;;;;;5074005;28;20177;-69
2023/10/11 10:18:47;;;;;;;7.17;1.83;;;19.90;99.90;;;;;;5073781;28;20225;-72
2023/10/11 10:21:17;;;;;;;7.67;2.23;;;19.90;99.90;;;;;;5073635;28;20580;-73
2023/10/11 10:23:45;;;;;;;8.07;2.30;;;19.80;99.90;;;;;;5081836;28;20268;-72
2023/10/11 10:26:13;;;;;;;7.47;2.23;;;19.70;99.90;;;;;;5091178;28;20642;-74
2023/10/11 10:28:42;;;;;;;9.23;2.20;;;19.70;99.90;;;;;;5093578;28;20286;-72
2023/10/11 10:31:17;;;;;;;9.10;1.83;;;19.60;99.90;;;;;;5093578;28;20278;-73
2023/10/11 10:33:55;;;;;;;4.37;2.00;;;19.60;99.90;;;;;;5075404;28;20175;-72
2023/10/11 10:36:28;;;;;;;9.90;2.67;;;19.60;99.90;;;;;;5093084;28;20189;-72
2023/10/11 10:39:46;;;;;;;3.37;2.00;;;19.60;99.90;;;;;;5093784;28;20175;-73
2023/10/11 10:42:12;;;;;;;8.63;2.50;;;19.60;99.90;;;;;;5093332;28;20207;-72
2023/10/11 10:44:51;;;;;;;7.97;2.33;;;19.70;99.90;;;;;;5093206;28;20745;-73
2023/10/11 10:47:28;;;;;;;5.17;2.30;;;19.70;99.90;;;;;;5093620;28;20220;-71
2023/10/11 10:50:03;;;;;;;7.20;2.20;;;19.60;99.90;;;;;;5093733;28;20195;-71
2023/10/11 10:52:30;;;;;;;5.97;2.43;;;19.50;99.90;;;;;;5092959;28;20187;-72
2023/10/11 10:55:03;;;;;;;6.47;2.23;;;19.40;99.90;;;;;;5093615;28;20185;-72
2023/10/11 10:57:36;;;;;;;6.80;2.60;;;19.40;99.90;;;;;;5093319;28;20210;-73
2023/10/11 11:00:20;;;;;;;16.53;8.07;;;19.30;99.90;;;;;;5093147;28;20581;-73
2023/10/11 11:02:47;;;;;;;6.80;3.67;;;19.30;99.90;;;;;;5092901;28;20195;-72
2023/10/11 11:05:15;;;;;;;7.33;2.63;;;19.20;99.90;;;;;;5092756;28;20176;-72
2023/10/11 11:07:49;;;;;;;8.17;2.80;;;19.10;99.90;;;;;;5092952;28;20754;-71
2023/10/11 11:10:21;;;;;;;4.80;2.57;;;19.00;99.90;;;;;;5093156;28;20168;-71
2023/10/11 11:12:49;;;;;;;7.80;2.40;;;19.00;99.90;;;;;;5092194;28;20198;-71
2023/10/11 11:15:23;;;;;;;11.13;2.53;;;;;;;;;;5091729;28;20187;-73
2023/10/11 11:17:52;;;;;;;6.33;2.00;;;18.80;99.90;;;;;;5092958;28;20193;-73
2023/10/11 11:20:31;;;;;;;4.13;2.20;;;18.70;99.90;;;;;;5092428;28;20256;-72
2023/10/11 11:22:59;;;;;;;12.93;2.30;;;18.60;99.90;;;;;;5092721;28;20177;-72
2023/10/11 11:25:27;;;;;;;5.97;2.13;;;18.60;99.90;;;;;;5092541;28;20220;-70
2023/10/11 11:28:24;;;;;;;7.60;2.33;;;18.50;99.90;;;;;;5092342;28;20233;-71
2023/10/11 11:31:04;;;;;;;4.03;2.00;;;18.60;99.90;;;;;;5092806;28;20224;-71
2023/10/11 11:33:35;;;;;;;7.47;2.27;;;18.50;99.90;;;;;;5092682;28;20192;-72
2023/10/11 11:36:14;;;;;;;7.10;2.40;;;18.50;99.90;;;;;;5092265;28;20192;-69
2023/10/11 11:38:48;;;;;;;5.40;2.00;;;18.40;99.90;;;;;;5072491;28;20184;-72
2023/10/11 11:41:18;;;;;;;5.67;2.43;;;18.40;99.90;;;;;;5072497;28;20267;-69
2023/10/11 11:43:48;;;;;;;6.40;2.83;;;18.30;99.90;;;;;;5071856;28;20229;-69
2023/10/11 11:46:16;;;;;;;4.50;2.03;;;18.30;99.90;;;;;;5086966;28;20237;-73
2023/10/11 11:48:43;;;;;;;8.40;2.70;;;18.20;99.90;;;;;;5092422;28;20185;-71
2023/10/11 11:51:14;;;;;;;5.90;1.97;;;18.20;99.90;;;;;;5092198;28;20177;-70
2023/10/11 11:53:45;;;;;;;6.10;2.07;;;18.10;99.90;;;;;;5092454;28;20191;-72
2023/10/11 11:56:14;;;;;;;5.23;2.23;;;18.10;99.90;;;;;;5092056;28;20194;-71
2023/10/11 11:58:45;;;;;;;7.17;2.53;;;18.00;99.90;;;;;;5091704;28;20171;-70
2023/10/11 12:01:17;;;;;;;6.83;2.23;;;18.10;99.90;;;;;;5092277;28;20244;-69
2023/10/11 12:03:54;;;;;;;5.30;2.30;;;18.00;99.90;;;;;;5071857;28;20665;-71
2023/10/11 12:06:21;;;;;;;5.90;2.30;;;18.00;99.90;;;;;;5089739;28;20202;-72
2023/10/11 12:08:59;;;;;;;7.23;2.23;;;18.00;99.90;;;;;;5092058;28;20827;-71
2023/10/11 12:11:30;;;;;;;8.73;2.40;;;17.90;99.90;;;;;;5092273;28;20661;-70
2023/10/11 12:13:59;;;;;;;4.87;2.10;;;17.90;99.90;;;;;;5092169;28;20261;-72
2023/10/11 12:16:29;;;;;;;6.43;2.53;;;17.90;99.90;;;;;;5091882;28;20198;-70
2023/10/11 12:18:59;;;;;;;6.53;2.13;;;17.90;99.90;;;;;;5091715;28;20180;-72
2023/10/11 12:21:27;;;;;;;6.07;2.90;;;17.90;99.90;;;;;;5092049;28;20220;-71
2023/10/11 12:23:54;;;;;;;5.97;2.80;;;17.90;99.90;;;;;;5091664;28;20217;-71
2023/10/11 12:26:25;;;;;;;5.30;2.03;;;17.80;99.90;;;;;;5091332;28;20500;-72
2023/10/11 12:28:52;;;;;;;7.67;2.33;;;17.80;99.90;;;;;;5090894;28;20183;-71
2023/10/11 12:31:20;;;;;;;5.43;2.27;;;17.70;99.90;;;;;;5091808;28;20176;-70
2023/10/11 12:33:47;;;;;;;6.50;2.50;;;17.60;99.90;;;;;;5091184;28;20661;-73
2023/10/11 12:36:19;;;;;;;5.97;2.40;;;17.60;99.90;;;;;;5091826;28;20264;-71
2023/10/11 12:38:48;;;;;;;8.17;2.60;;;17.50;99.90;;;;;;5082681;28;20186;-71
2023/10/11 12:41:15;;;;;;;5.40;2.47;;;17.50;99.90;;;;;;5092854;28;20191;-71
2023/10/11 12:43:45;;;;;;;6.33;2.30;;;17.50;99.90;;;;;;5092896;28;20197;-72
2023/10/11 12:46:12;;;;;;;5.97;1.80;;;17.40;99.90;;;;;;5093121;28;20214;-72
2023/10/11 12:48:40;;;;;;;6.37;2.30;;;17.50;99.90;;;;;;5092980;28;20183;-70
2023/10/11 12:51:07;;;;;;;5.50;2.50;;;17.50;99.90;;;;;;5092950;28;20188;-71
2023/10/11 12:53:35;;;;;;;7.90;2.57;;;17.40;99.90;;;;;;5092904;28;20242;-69
2023/10/11 12:56:02;;;;;;;9.63;2.87;;;17.40;99.90;;;;;;5093098;28;20640;-70
2023/10/11 12:58:39;;;;;;;5.97;2.53;;;17.40;99.90;;;;;;5093076;28;20179;-72
2023/10/11 13:01:11;;;;;;;6.10;2.27;;;17.30;99.90;;;;;;5092905;28;20655;-71
2023/10/11 13:03:42;;;;;;;4.93;2.43;;;17.30;99.90;;;;;;5092819;28;20266;-70
2023/10/11 13:06:10;;;;;;;6.33;2.60;;;17.20;99.90;;;;;;5092717;28;20207;-72
2023/10/11 13:08:38;;;;;;;6.30;3.17;;;17.30;99.90;;;;;;5091593;28;20178;-72
2023/10/11 13:11:11;;;;;;;7.90;3.30;;;17.20;99.90;;;;;;5092933;28;20189;-70
2023/10/11 13:13:40;;;;;;;4.50;2.60;;;17.10;99.90;;;;;;5092655;28;20528;-71
2023/10/11 13:16:08;;;;;;;6.50;2.43;;;17.10;99.90;;;;;;5092569;28;20187;-70
2023/10/11 13:18:38;;;;;;;6.90;2.67;;;17.10;99.90;;;;;;5092879;28;20221;-69
2023/10/11 13:21:11;;;;;;;8.87;3.07;;;17.10;99.90;;;;;;5092627;28;20185;-70
2023/10/11 13:23:43;;;;;;;7.43;2.47;;;17.00;99.90;;;;;;5092836;28;20629;-71
2023/10/11 13:26:10;;;;;;;6.63;2.90;;;17.00;99.90;;;;;;5092614;28;20226;-71
2023/10/11 13:28:41;;;;;;;6.47;2.60;;;17.00;99.90;;;;;;5092664;28;20190;-69
2023/10/11 13:31:09;;;;;;;4.13;2.30;;;16.90;99.90;;;;;;5093558;28;20274;-70
2023/10/11 13:33:37;;;;;;;9.87;2.80;;;16.90;99.90;;;;;;5092741;28;20229;-71
2023/10/11 13:36:07;;;;;;;7.20;2.87;;;16.90;99.90;;;;;;5092533;28;20206;-71
2023/10/11 13:38:36;;;;;;;4.37;2.27;;;16.90;99.90;;;;;;5092555;28;20300;-71
2023/10/11 13:41:04;;;;;;;8.70;2.77;;;16.90;99.90;;;;;;5095469;28;20253;-71
2023/10/11 13:43:31;;;;;;;6.97;3.30;;;16.90;99.90;;;;;;5096032;28;20655;-70
2023/10/11 13:46:07;;;;;;;7.87;2.60;;;17.00;99.90;;;;;;5096098;28;20207;-71
2023/10/11 13:48:39;;;;;;;8.33;3.00;;;16.90;99.90;;;;;;5096090;28;20195;-70
2023/10/11 13:51:10;;;;;;;8.77;2.73;;;16.90;99.90;;;;;;5095571;28;20179;-71
2023/10/11 13:53:44;;;;;;;7.90;2.60;;;16.80;99.90;;;;;;5096100;28;20198;-70
2023/10/11 13:56:14;;;;;;;6.27;2.60;;;16.70;99.90;;;;;;5096188;28;20183;-71
2023/10/11 13:58:45;;;;;;;8.60;2.67;;;16.70;99.90;;;;;;5096175;28;20183;-71
2023/10/11 14:04:25;;;;;;;7.93;2.87;;;16.70;99.90;;;;;;5094499;28;20548;-71
2023/10/11 14:07:22;;;;;;;8.27;3.07;;;16.70;99.90;;;;;;5096011;28;20210;-68